Terminal Aerodrome Forecast
Issued by NWS Wilmington, OH

Home | Current Version | Previous Version | Text Only | Print | Product List | Glossary On
Versions: 1 2 3 4 5 6 7 8 9 10 11 12 13 14 15
000
FTUS41 KILN 010500
TAFDAY
TAF
KDAY 010532Z 0106/0206 35021G29KT P6SM -SN OVC014
     FM010800 34018G25KT P6SM OVC018
     FM011700 35017G25KT P6SM BKN025
     FM012000 35015G25KT P6SM BKN035
     FM012300 32006KT P6SM FEW035=

USA.gov is the U.S. government's official web portal to all federal, state and local government web resources and services.